Time;durP1;ratioP1;P1;durP2;ratioP2;P2;SDS_P1;SDS_P2;PMS_P1;PMS_P2;Temp;Humidity;BMP_temperature;BMP_pressure;BME280_temperature;BME280_humidity;BME280_pressure;Samples;Min_cycle;Max_cycle;Signal;HPM_P1;HPM_P2
2024/02/06 00:01:10;;;;;;;12.88;6.15;;;;;;;6.03;76.08;100389.38;4180439;28;20108;-67
2024/02/06 00:03:11;;;;;;;14.73;6.70;;;;;;;5.94;76.23;100379.38;4172332;28;20124;-67
2024/02/06 00:05:11;;;;;;;12.52;6.95;;;;;;;6.05;75.87;100376.84;4173730;28;20022;-67
2024/02/06 00:07:12;;;;;;;15.18;7.68;;;;;;;5.96;76.22;100381.91;4169269;28;20033;-67
2024/02/06 00:09:12;;;;;;;15.65;7.22;;;;;;;6.06;75.89;100380.34;4165625;28;20053;-67
2024/02/06 00:11:13;;;;;;;9.83;5.80;;;;;;;6.08;75.64;100381.09;4167369;28;20025;-67
2024/02/06 00:13:13;;;;;;;9.82;6.38;;;;;;;6.01;75.91;100383.34;4166865;28;20017;-68
2024/02/06 00:15:14;;;;;;;13.60;6.07;;;;;;;6.16;75.56;100372.56;4166578;28;20029;-67
2024/02/06 00:17:14;;;;;;;12.05;5.97;;;;;;;6.24;75.21;100384.38;4166240;28;20275;-67
2024/02/06 00:19:16;;;;;;;11.95;6.45;;;;;;;6.22;75.20;100385.44;4166916;28;20048;-67
2024/02/06 00:21:16;;;;;;;12.00;6.45;;;;;;;6.18;75.30;100378.63;4166756;28;20032;-67
2024/02/06 00:23:17;;;;;;;15.90;7.28;;;;;;;6.01;75.44;100380.69;4166380;28;20030;-67
2024/02/06 00:25:18;;;;;;;14.25;6.78;;;;;;;5.97;75.64;100379.16;4165498;28;20057;-68
2024/02/06 00:27:18;;;;;;;12.53;6.73;;;;;;;5.98;75.62;100370.22;4166219;28;20083;-67
2024/02/06 00:29:20;;;;;;;11.55;6.32;;;;;;;6.09;75.28;100366.88;4166334;28;20949;-67
2024/02/06 00:31:20;;;;;;;;;;;;;;;5.93;75.45;100375.84;4166688;28;20029;-68
2024/02/06 00:33:20;;;;;;;11.03;7.17;;;;;;;5.92;75.70;100365.38;4166835;28;19909;-67
2024/02/06 00:35:21;;;;;;;18.50;7.03;;;;;;;6.02;75.39;100370.91;4166535;28;20077;-67
2024/02/06 00:37:22;;;;;;;17.42;8.90;;;;;;;5.87;75.48;100378.09;4165821;28;20076;-67
2024/02/06 00:39:22;;;;;;;14.68;7.75;;;;;;;5.96;75.00;100366.81;4165782;28;20044;-67
2024/02/06 00:41:23;;;;;;;12.65;7.18;;;;;;;5.93;75.12;100378.50;4165766;28;20087;-66
2024/02/06 00:43:23;;;;;;;17.80;8.10;;;;;;;5.85;75.67;100380.03;4166385;28;20021;-66
2024/02/06 00:45:24;;;;;;;21.38;7.15;;;;;;;5.96;75.17;100377.44;4165728;28;20661;-67
2024/02/06 00:47:24;;;;;;;12.87;6.93;;;;;;;6.14;74.62;100380.66;4164549;28;20043;-66
2024/02/06 00:49:25;;;;;;;14.05;7.05;;;;;;;6.11;74.50;100380.88;4166108;28;20288;-66
2024/02/06 00:51:25;;;;;;;21.35;6.95;;;;;;;6.17;74.35;100382.25;4166175;28;20048;-67
2024/02/06 00:53:26;;;;;;;14.20;7.50;;;;;;;6.16;74.37;100372.56;4165840;28;20086;-67
2024/02/06 00:55:26;;;;;;;18.48;7.53;;;;;;;6.08;74.37;100371.31;4165786;28;20271;-67
2024/02/06 00:57:27;;;;;;;13.75;6.63;;;;;;;6.11;74.29;100372.91;4165382;28;20034;-66
2024/02/06 00:59:27;;;;;;;16.63;7.20;;;;;;;5.97;74.55;100378.31;4166047;28;20025;-67
2024/02/06 01:01:34;;;;;;;19.05;8.45;;;;;;;5.91;74.61;100379.59;4165534;28;20060;-66
2024/02/06 01:03:38;;;;;;;19.73;7.38;;;;;;;6.00;74.46;100376.31;4164031;28;20429;-67
2024/02/06 01:05:39;;;;;;;14.93;7.13;;;;;;;6.18;74.03;100381.28;4165079;28;20142;-67
2024/02/06 01:07:40;;;;;;;14.13;7.35;;;;;;;6.18;73.87;100370.66;4165244;28;20444;-66
2024/02/06 01:09:40;;;;;;;15.63;7.72;;;;;;;6.16;74.00;100375.22;4165590;28;20151;-66
2024/02/06 01:11:40;;;;;;;20.00;7.50;;;;;;;6.17;73.77;100379.59;4165746;28;20029;-66
2024/02/06 01:13:41;;;;;;;11.23;6.27;;;;;;;6.16;73.83;100378.75;4164880;28;20339;-67
2024/02/06 01:15:41;;;;;;;15.93;7.18;;;;;;;6.01;74.33;100370.06;4166372;28;20033;-67
2024/02/06 01:17:42;;;;;;;16.48;7.78;;;;;;;6.02;74.26;100368.25;4165091;28;20034;-67
2024/02/06 01:19:42;;;;;;;14.52;7.68;;;;;;;6.04;74.17;100364.53;4165713;28;20489;-67
2024/02/06 01:21:43;;;;;;;16.95;7.38;;;;;;;6.02;74.29;100368.25;4165528;28;20026;-67
2024/02/06 01:23:43;;;;;;;13.00;6.85;;;;;;;6.06;74.17;100375.88;4165503;28;20029;-67
2024/02/06 01:25:44;;;;;;;20.60;7.90;;;;;;;5.96;74.17;100361.53;4165019;28;20440;-66
2024/02/06 01:27:45;;;;;;;15.68;8.40;;;;;;;5.97;74.22;100362.38;4165106;28;20421;-66
2024/02/06 01:29:47;;;;;;;;;;;;;;;5.87;74.18;100375.44;4165984;28;20048;-66
2024/02/06 01:31:48;;;;;;;14.88;7.90;;;;;;;5.93;74.26;100361.75;4164359;28;20384;-67
2024/02/06 01:33:48;;;;;;;19.40;7.97;;;;;;;5.98;74.03;100369.41;4163907;28;20020;-66
2024/02/06 01:35:49;;;;;;;21.13;8.35;;;;;;;5.99;74.12;100360.47;4165208;28;20030;-66
2024/02/06 01:37:50;;;;;;;16.30;7.43;;;;;;;5.85;74.44;100366.75;4164954;28;20037;-66
2024/02/06 01:39:51;;;;;;;13.40;7.95;;;;;;;5.91;74.72;100371.63;4164072;28;20151;-66
2024/02/06 01:41:52;;;;;;;15.20;7.38;;;;;;;6.01;74.12;100358.56;4164036;28;20393;-66
2024/02/06 01:43:53;;;;;;;16.52;8.48;;;;;;;6.01;74.18;100362.09;4165041;28;20049;-66
2024/02/06 01:45:54;;;;;;;;;;;;;;;5.87;74.35;100363.03;4165702;28;20021;-66
2024/02/06 01:47:55;;;;;;;16.67;8.57;;;;;;;5.83;74.67;100358.03;4164820;28;19916;-66
2024/02/06 01:49:56;;;;;;;;;;;;;;;5.80;74.71;100366.22;4165641;28;20143;-66
2024/02/06 01:51:57;;;;;;;17.35;7.93;;;;;;;5.82;74.86;100353.69;4165536;28;19912;-67
2024/02/06 01:53:58;;;;;;;18.17;8.85;;;;;;;5.82;74.99;100353.69;4165763;28;20030;-66
2024/02/06 01:55:59;;;;;;;11.60;6.68;;;;;;;6.03;74.38;100360.19;4148213;28;20089;-66
2024/02/06 01:58:01;;;;;;;23.50;8.27;;;;;;;5.97;74.62;100349.13;4148416;28;20478;-67
2024/02/06 02:00:05;;;;;;;16.42;7.85;;;;;;;5.89;74.81;100357.59;4148625;28;20022;-67
2024/02/06 02:02:06;;;;;;;13.77;8.05;;;;;;;5.98;74.56;100349.00;4147212;28;20042;-67
2024/02/06 02:04:07;;;;;;;18.35;9.43;;;;;;;5.87;74.90;100341.81;4147177;28;20068;-66
2024/02/06 02:06:07;;;;;;;16.58;8.18;;;;;;;5.81;75.06;100357.28;4148423;28;20034;-67
2024/02/06 02:08:08;;;;;;;17.67;8.25;;;;;;;5.91;74.78;100358.34;4148101;28;20028;-67
2024/02/06 02:10:09;;;;;;;19.42;7.85;;;;;;;5.90;74.83;100356.66;4147076;28;20120;-66
2024/02/06 02:12:09;;;;;;;16.88;8.10;;;;;;;6.06;74.43;100361.78;4148949;28;20545;-67
2024/02/06 02:14:10;;;;;;;12.98;7.03;;;;;;;6.19;73.89;100357.28;4148197;28;20040;-67
2024/02/06 02:16:11;;;;;;;14.20;7.55;;;;;;;6.04;74.28;100356.59;4148409;28;20036;-67
2024/02/06 02:18:11;;;;;;;17.33;7.72;;;;;;;5.91;74.61;100355.69;4146776;28;20058;-66
2024/02/06 02:20:11;;;;;;;18.80;9.80;;;;;;;5.92;74.58;100352.09;4148671;28;20083;-66
2024/02/06 02:22:12;;;;;;;14.93;8.35;;;;;;;6.05;74.20;100346.81;4148587;28;20044;-67
2024/02/06 02:24:12;;;;;;;19.50;8.67;;;;;;;5.94;74.17;100348.38;4147943;28;20026;-66
2024/02/06 02:26:16;;;;;;;15.13;8.02;;;;;;;5.92;74.32;100344.13;4148473;28;20277;-66
2024/02/06 02:28:17;;;;;;;17.33;7.63;;;;;;;5.93;74.14;100344.00;4148103;28;20042;-67
2024/02/06 02:30:18;;;;;;;15.68;7.80;;;;;;;5.97;74.00;100346.47;4148212;28;20025;-68
2024/02/06 02:32:19;;;;;;;;;;;;;;;5.81;74.28;100352.81;4148919;28;20039;-67
2024/02/06 02:34:20;;;;;;;16.70;8.52;;;;;;;5.93;73.82;100351.16;4147764;28;19956;-66
2024/02/06 02:36:20;;;;;;;15.75;7.63;;;;;;;5.92;73.88;100338.81;4148198;28;20037;-66
2024/02/06 02:38:21;;;;;;;15.60;7.85;;;;;;;5.97;73.87;100341.16;4147336;28;20108;-66
2024/02/06 02:40:21;;;;;;;17.80;8.57;;;;;;;5.94;73.80;100327.13;4139896;28;20026;-66
2024/02/06 02:42:22;;;;;;;12.77;8.20;;;;;;;5.98;73.91;100335.72;4139771;28;20033;-67
2024/02/06 02:44:22;;;;;;;18.95;9.45;;;;;;;5.86;74.10;100334.78;4163155;28;20022;-68
2024/02/06 02:46:23;;;;;;;16.50;8.37;;;;;;;5.96;74.18;100347.41;4148548;28;20025;-68
2024/02/06 02:48:23;;;;;;;19.00;8.13;;;;;;;5.94;73.92;100344.88;4144141;28;20296;-69
2024/02/06 02:50:23;;;;;;;17.88;9.65;;;;;;;5.83;74.10;100328.84;4149320;28;20267;-67
2024/02/06 02:52:25;;;;;;;14.57;8.17;;;;;;;6.03;73.64;100341.63;4147443;28;20036;-67
2024/02/06 02:54:28;;;;;;;17.45;8.60;;;;;;;5.91;73.87;100337.13;4148006;28;20049;-66
2024/02/06 02:56:28;;;;;;;18.52;7.85;;;;;;;5.99;73.49;100339.25;4147913;28;20022;-66
2024/02/06 02:58:29;;;;;;;18.88;9.60;;;;;;;5.77;74.00;100328.31;4147445;28;20638;-66
2024/02/06 03:00:29;;;;;;;15.57;8.43;;;;;;;5.80;73.93;100332.59;4147895;28;20061;-67
2024/02/06 03:02:30;;;;;;;16.35;9.25;;;;;;;5.80;73.77;100329.06;4148917;28;20033;-66
2024/02/06 03:04:30;;;;;;;16.25;8.88;;;;;;;5.73;74.04;100328.63;4148647;28;20113;-66
2024/02/06 03:06:31;;;;;;;14.85;7.95;;;;;;;5.89;73.57;100339.03;4149676;28;20073;-66
2024/02/06 03:08:31;;;;;;;16.83;9.02;;;;;;;5.86;73.60;100331.28;4153408;28;20025;-66
2024/02/06 03:10:32;;;;;;;16.30;8.82;;;;;;;5.82;73.53;100322.69;4149312;28;20034;-66
2024/02/06 03:12:32;;;;;;;17.17;9.30;;;;;;;5.78;73.88;100332.66;4153997;28;20068;-67
2024/02/06 03:14:33;;;;;;;15.13;9.05;;;;;;;5.81;73.91;100330.75;4152833;28;20518;-66
2024/02/06 03:16:34;;;;;;;18.30;7.97;;;;;;;5.87;73.77;100331.19;4150644;28;20096;-66
2024/02/06 03:18:34;;;;;;;19.63;9.30;;;;;;;5.91;73.80;100331.81;4150826;28;20386;-67
2024/02/06 03:20:35;;;;;;;16.25;7.78;;;;;;;6.04;73.47;100327.38;4152772;28;20105;-67
2024/02/06 03:22:35;;;;;;;21.45;9.07;;;;;;;5.77;74.25;100325.66;4150281;28;20030;-67
2024/02/06 03:24:36;;;;;;;19.60;9.07;;;;;;;5.80;74.32;100326.41;4152189;28;20026;-67
2024/02/06 03:26:36;;;;;;;15.47;8.40;;;;;;;5.76;74.43;100329.25;4156659;28;20040;-67
2024/02/06 03:28:36;;;;;;;18.23;8.83;;;;;;;5.80;74.71;100331.72;4154805;28;20049;-66
2024/02/06 03:30:37;;;;;;;18.10;9.53;;;;;;;5.84;74.57;100330.56;4155240;28;20261;-66
2024/02/06 03:32:37;;;;;;;19.92;8.73;;;;;;;5.72;75.00;100333.09;4171433;28;20076;-65
2024/02/06 03:34:39;;;;;;;17.23;10.15;;;;;;;5.65;75.33;100334.50;4155277;28;20053;-66
2024/02/06 03:36:42;;;;;;;21.08;8.73;;;;;;;5.71;75.07;100334.06;4153923;28;20024;-67
2024/02/06 03:38:43;;;;;;;17.17;7.97;;;;;;;5.74;75.21;100335.63;4152746;28;20026;-67
2024/02/06 03:40:44;;;;;;;;;;;;;;;5.77;75.22;100324.81;4147415;28;20021;-66
2024/02/06 03:42:44;;;;;;;18.77;8.47;;;;;;;5.86;75.06;100328.63;4147293;28;20380;-66
2024/02/06 03:44:44;;;;;;;15.77;8.20;;;;;;;5.77;75.12;100338.91;4146944;28;20026;-66
2024/02/06 03:46:45;;;;;;;20.70;8.87;;;;;;;5.72;75.48;100330.44;4146328;28;20319;-66
2024/02/06 03:48:46;;;;;;;18.50;8.93;;;;;;;5.71;75.73;100341.19;4146393;28;20418;-66
2024/02/06 03:50:46;;;;;;;17.52;8.55;;;;;;;5.70;75.75;100339.47;4147524;28;20469;-66
2024/02/06 03:52:46;;;;;;;19.37;8.83;;;;;;;5.78;75.86;100337.97;4147371;28;20382;-66
2024/02/06 03:54:48;;;;;;;23.25;8.25;;;;;;;5.76;75.82;100333.72;4146658;28;20069;-66
2024/02/06 03:56:48;;;;;;;;;;;;;;;5.61;76.16;100338.28;4147406;28;20425;-66
2024/02/06 03:58:49;;;;;;;18.97;8.60;;;;;;;5.63;76.29;100344.34;4146494;28;19955;-67
2024/02/06 04:00:50;;;;;;;20.33;8.60;;;;;;;5.62;76.40;100343.47;4147142;28;20052;-66
2024/02/06 04:02:50;;;;;;;20.30;9.68;;;;;;;5.65;76.48;100330.97;4146717;28;20049;-67
2024/02/06 04:04:51;;;;;;;21.40;8.83;;;;;;;5.67;76.49;100337.88;4145619;28;20414;-67
2024/02/06 04:06:51;;;;;;;21.00;8.85;;;;;;;5.71;76.31;100336.72;4147177;28;20630;-66
2024/02/06 04:08:52;;;;;;;18.17;8.45;;;;;;;5.76;76.17;100339.03;4146218;28;20026;-67
2024/02/06 04:10:56;;;;;;;21.23;8.90;;;;;;;5.78;76.24;100337.97;4147495;28;20047;-67
2024/02/06 04:12:56;;;;;;;24.80;9.25;;;;;;;5.69;76.52;100322.69;4147348;28;20394;-66
2024/02/06 04:14:58;;;;;;;21.80;9.32;;;;;;;5.64;76.78;100319.53;4146272;28;20040;-67
2024/02/06 04:16:59;;;;;;;16.50;8.43;;;;;;;5.63;77.08;100341.69;4145906;28;20316;-66
2024/02/06 04:18:59;;;;;;;23.85;10.38;;;;;;;5.58;77.30;100331.41;4146820;28;20106;-66
2024/02/06 04:21:00;;;;;;;23.40;10.10;;;;;;;5.52;77.66;100331.84;4145334;28;20065;-68
2024/02/06 04:23:00;;;;;;;21.95;9.63;;;;;;;5.56;77.54;100325.34;4145319;28;20300;-67
2024/02/06 04:25:01;;;;;;;20.35;9.48;;;;;;;5.50;77.79;100322.25;4146852;28;20026;-66
2024/02/06 04:27:02;;;;;;;18.38;9.05;;;;;;;5.53;77.95;100327.38;4145119;28;20026;-66
2024/02/06 04:29:02;;;;;;;18.90;8.98;;;;;;;5.62;77.67;100321.44;4146229;28;20026;-66
2024/02/06 04:31:04;;;;;;;14.75;9.18;;;;;;;5.61;77.72;100322.38;4146208;28;20391;-66
2024/02/06 04:33:04;;;;;;;15.80;8.52;;;;;;;5.63;77.53;100316.00;4146336;28;20022;-66
2024/02/06 04:35:05;;;;;;;18.25;9.15;;;;;;;5.51;77.80;100302.75;4146419;28;20026;-66
2024/02/06 04:37:07;;;;;;;21.60;9.45;;;;;;;5.62;77.53;100308.16;4145932;28;20482;-66
2024/02/06 04:39:07;;;;;;;18.15;8.20;;;;;;;5.63;77.53;100304.56;4148509;28;20057;-66
2024/02/06 04:41:07;;;;;;;18.37;7.50;;;;;;;5.57;77.55;100307.66;4149402;28;20045;-67
2024/02/06 04:43:08;;;;;;;18.17;8.48;;;;;;;5.54;77.80;100305.19;4149195;28;20785;-67
2024/02/06 04:45:09;;;;;;;16.10;7.87;;;;;;;5.55;77.56;100310.38;4148663;28;20382;-66
2024/02/06 04:47:10;;;;;;;17.77;8.60;;;;;;;5.57;77.59;100297.88;4149178;28;20269;-67
2024/02/06 04:49:11;;;;;;;22.33;9.13;;;;;;;5.43;78.04;100296.19;4149082;28;20025;-66
2024/02/06 04:51:12;;;;;;;16.10;7.85;;;;;;;5.55;77.89;100291.81;4149233;28;20105;-66
2024/02/06 04:53:14;;;;;;;20.42;9.10;;;;;;;5.45;78.17;100299.59;4148984;28;20049;-67
2024/02/06 04:55:14;;;;;;;19.42;8.73;;;;;;;5.50;78.05;100301.06;4149753;28;20033;-66
2024/02/06 04:57:15;;;;;;;18.38;8.55;;;;;;;5.45;78.24;100294.28;4150263;28;20022;-67
2024/02/06 04:59:16;;;;;;;16.88;8.80;;;;;;;5.47;78.15;100283.56;4150713;28;20025;-67
2024/02/06 05:01:17;;;;;;;18.55;8.55;;;;;;;5.43;78.39;100285.56;4149325;28;20085;-66
2024/02/06 05:03:18;;;;;;;13.52;8.07;;;;;;;5.43;78.40;100290.03;4149376;28;20026;-68
2024/02/06 05:05:18;;;;;;;18.38;8.82;;;;;;;5.43;78.36;100282.91;4149037;28;20050;-66
2024/02/06 05:07:19;;;;;;;18.93;8.20;;;;;;;5.54;77.96;100276.88;4147785;28;20034;-67
2024/02/06 05:09:20;;;;;;;17.95;7.50;;;;;;;5.55;77.95;100272.44;4147996;28;20323;-66
2024/02/06 05:11:20;;;;;;;15.10;7.20;;;;;;;5.53;77.77;100263.72;4149259;28;20036;-67
2024/02/06 05:13:21;;;;;;;14.43;7.38;;;;;;;5.52;77.73;100259.38;4149051;28;20045;-66
2024/02/06 05:15:22;;;;;;;13.43;7.45;;;;;;;5.55;77.61;100257.34;4148505;28;20089;-66
2024/02/06 05:17:25;;;;;;;14.45;7.07;;;;;;;5.57;77.44;100258.09;4148302;28;20026;-67
2024/02/06 05:19:26;;;;;;;16.00;7.57;;;;;;;5.69;76.97;100258.19;4148520;28;20083;-67
2024/02/06 05:21:26;;;;;;;17.92;7.85;;;;;;;5.62;77.10;100253.31;4149255;28;20033;-66
2024/02/06 05:23:27;;;;;;;13.82;6.65;;;;;;;5.58;76.89;100250.97;4148672;28;20389;-66
2024/02/06 05:25:28;;;;;;;13.05;7.60;;;;;;;5.55;76.79;100246.75;4148411;28;20033;-67
2024/02/06 05:27:29;;;;;;;14.23;6.05;;;;;;;5.54;76.70;100244.22;4148362;28;20371;-67
2024/02/06 05:29:33;;;;;;;15.75;6.32;;;;;;;5.62;76.11;100253.31;4149191;28;20058;-67
2024/02/06 05:31:34;;;;;;;12.32;6.00;;;;;;;5.76;75.73;100248.84;4149282;28;20080;-66
2024/02/06 05:33:34;;;;;;;13.55;7.07;;;;;;;5.71;75.74;100251.00;4147255;28;20018;-66
2024/02/06 05:35:34;;;;;;;12.67;6.37;;;;;;;5.65;75.71;100246.09;4147353;28;20518;-66
2024/02/06 05:37:36;;;;;;;16.20;7.13;;;;;;;5.67;75.59;100249.50;4148292;28;20681;-67
2024/02/06 05:39:36;;;;;;;15.27;5.97;;;;;;;5.76;75.37;100254.97;4148675;28;20319;-67
2024/02/06 05:41:36;;;;;;;13.57;6.60;;;;;;;5.75;75.20;100248.00;4148813;28;20116;-67
2024/02/06 05:43:37;;;;;;;11.30;5.87;;;;;;;5.87;74.87;100243.63;4146962;28;20285;-66
2024/02/06 05:45:37;;;;;;;11.75;6.00;;;;;;;5.74;74.76;100246.31;4148255;28;20080;-67
2024/02/06 05:47:38;;;;;;;11.60;6.63;;;;;;;5.84;74.59;100251.78;4146616;28;20076;-66
2024/02/06 05:49:39;;;;;;;14.82;6.15;;;;;;;5.80;74.50;100252.13;4149850;28;20474;-66
2024/02/06 05:51:39;;;;;;;15.17;5.90;;;;;;;5.88;74.32;100252.41;4131614;28;20053;-67
2024/02/06 05:53:39;;;;;;;13.60;6.33;;;;;;;5.82;74.10;100255.53;4122193;28;20262;-67
2024/02/06 05:55:40;;;;;;;14.90;6.20;;;;;;;5.71;74.05;100243.84;4125418;28;20641;-66
2024/02/06 05:57:41;;;;;;;10.57;6.20;;;;;;;5.86;74.04;100247.22;4132313;28;62209;-67
2024/02/06 05:59:41;;;;;;;11.40;6.13;;;;;;;5.87;73.69;100248.94;4146994;28;20512;-66
2024/02/06 06:01:42;;;;;;;8.32;5.18;;;;;;;5.91;73.69;100254.88;4147734;28;20502;-67
2024/02/06 06:03:43;;;;;;;11.02;5.07;;;;;;;5.89;73.74;100254.13;4148060;28;20030;-67
2024/02/06 06:05:43;;;;;;;9.93;5.40;;;;;;;5.95;73.49;100253.69;4147644;28;20478;-67
2024/02/06 06:07:44;;;;;;;9.60;5.27;;;;;;;6.03;73.18;100261.13;4147581;28;20029;-66
2024/02/06 06:09:45;;;;;;;13.80;5.50;;;;;;;5.92;73.44;100252.09;4148432;28;20756;-67
2024/02/06 06:11:45;;;;;;;13.88;4.82;;;;;;;5.97;73.28;100259.72;4146819;28;20034;-66
2024/02/06 06:13:45;;;;;;;11.35;4.95;;;;;;;6.02;73.16;100267.38;4148193;28;20032;-66
2024/02/06 06:15:46;;;;;;;15.05;6.32;;;;;;;5.93;73.18;100269.72;4148103;28;20080;-66
2024/02/06 06:17:47;;;;;;;13.93;5.47;;;;;;;6.01;73.04;100265.69;4147653;28;20025;-66
2024/02/06 06:19:48;;;;;;;10.63;5.18;;;;;;;6.06;72.93;100261.75;4148471;28;20509;-66
2024/02/06 06:21:48;;;;;;;11.82;5.38;;;;;;;5.94;73.19;100263.44;4148300;28;20022;-67
2024/02/06 06:23:49;;;;;;;11.07;5.93;;;;;;;5.97;73.17;100265.03;4147899;28;20030;-68
2024/02/06 06:25:49;;;;;;;12.82;5.47;;;;;;;6.02;72.98;100260.28;4146407;28;20041;-67
2024/02/06 06:27:50;;;;;;;8.13;4.47;;;;;;;6.12;72.75;100264.94;4148093;28;20033;-66
2024/02/06 06:29:50;;;;;;;9.68;5.20;;;;;;;6.12;72.52;100262.28;4147940;28;20502;-66
2024/02/06 06:31:50;;;;;;;11.47;5.33;;;;;;;6.21;72.41;100264.25;4146109;28;20058;-66
2024/02/06 06:33:51;;;;;;;10.98;4.85;;;;;;;6.12;72.66;100264.94;4147718;28;20243;-67
2024/02/06 06:35:51;;;;;;;8.93;4.80;;;;;;;6.17;72.28;100268.09;4147295;28;20034;-66
2024/02/06 06:37:52;;;;;;;10.70;4.57;;;;;;;6.17;72.39;100262.78;4146291;28;20101;-66
2024/02/06 06:39:54;;;;;;;10.30;5.03;;;;;;;6.19;72.33;100260.88;4148496;28;20079;-66
2024/02/06 06:41:54;;;;;;;9.05;4.97;;;;;;;6.20;72.24;100257.25;4147480;28;20022;-67
2024/02/06 06:43:54;;;;;;;9.00;4.60;;;;;;;6.15;72.42;100254.06;4147220;28;20029;-66
2024/02/06 06:45:55;;;;;;;12.50;5.43;;;;;;;6.26;72.02;100240.03;4146408;28;20284;-66
2024/02/06 06:47:55;;;;;;;9.25;4.47;;;;;;;6.23;72.14;100243.78;4146366;28;20544;-68
2024/02/06 06:49:56;;;;;;;9.68;4.70;;;;;;;6.24;71.91;100248.09;4147305;28;20040;-67
2024/02/06 06:51:56;;;;;;;12.18;4.32;;;;;;;6.24;71.89;100245.44;4148058;28;20030;-66
2024/02/06 06:53:57;;;;;;;8.77;4.30;;;;;;;6.32;71.80;100248.41;4146413;28;20026;-67
2024/02/06 06:55:57;;;;;;;7.53;4.37;;;;;;;6.31;71.73;100240.53;4146141;28;20324;-66
2024/02/06 06:57:58;;;;;;;10.23;5.32;;;;;;;6.34;71.66;100249.13;4146714;28;20034;-67
2024/02/06 06:59:58;;;;;;;8.05;4.57;;;;;;;6.33;71.72;100244.75;4146022;28;20420;-66
2024/02/06 07:01:59;;;;;;;8.13;3.87;;;;;;;6.30;71.67;100236.19;4161382;28;20128;-66
2024/02/06 07:03:59;;;;;;;10.23;4.85;;;;;;;6.21;71.96;100233.25;4146980;28;20030;-68
2024/02/06 07:05:59;;;;;;;12.37;4.87;;;;;;;6.28;71.82;100241.63;4147463;28;20030;-66
2024/02/06 07:08:00;;;;;;;11.10;4.93;;;;;;;6.27;71.79;100249.69;4146967;28;20553;-67
2024/02/06 07:10:00;;;;;;;8.55;4.00;;;;;;;6.37;71.64;100243.59;4148966;28;20538;-66
2024/02/06 07:12:01;;;;;;;9.63;4.97;;;;;;;6.31;71.63;100249.38;4150364;28;20492;-67
2024/02/06 07:14:01;;;;;;;12.30;4.15;;;;;;;6.29;71.72;100245.97;4149061;28;20569;-67
2024/02/06 07:16:02;;;;;;;8.45;4.28;;;;;;;6.36;71.64;100247.22;4148339;28;20029;-66
2024/02/06 07:18:02;;;;;;;7.97;3.92;;;;;;;6.38;71.71;100249.75;4146568;28;20037;-67
2024/02/06 07:20:03;;;;;;;9.82;3.88;;;;;;;6.38;71.59;100249.75;4148086;28;20050;-68
2024/02/06 07:22:04;;;;;;;7.03;4.10;;;;;;;6.34;71.70;100243.81;4149383;28;20038;-66
2024/02/06 07:24:04;;;;;;;8.65;3.88;;;;;;;6.48;71.53;100239.31;4148048;28;20029;-66
2024/02/06 07:26:10;;;;;;;7.05;3.60;;;;;;;6.45;71.32;100252.78;4142705;28;20091;-68
2024/02/06 07:28:11;;;;;;;6.18;3.10;;;;;;;6.45;71.30;100250.13;4139620;28;20030;-66
2024/02/06 07:30:12;;;;;;;7.32;3.10;;;;;;;6.53;71.22;100253.94;4152618;28;20022;-66
2024/02/06 07:32:12;;;;;;;5.38;3.10;;;;;;;6.58;71.07;100255.38;4149403;28;20494;-67
2024/02/06 07:34:14;;;;;;;6.40;2.70;;;;;;;6.52;71.11;100246.06;4139087;28;20034;-68
2024/02/06 07:36:15;;;;;;;8.52;3.30;;;;;;;6.54;71.34;100246.81;4135777;28;20275;-66
2024/02/06 07:38:16;;;;;;;7.75;3.00;;;;;;;6.69;70.89;100253.66;4146678;28;20473;-67
2024/02/06 07:40:16;;;;;;;9.77;3.03;;;;;;;6.57;71.01;100251.91;4147451;28;20029;-67
2024/02/06 07:42:16;;;;;;;7.27;3.03;;;;;;;6.56;70.93;100258.16;4146054;28;20764;-67
2024/02/06 07:44:17;;;;;;;8.05;3.00;;;;;;;6.63;70.88;100248.78;4147072;28;20026;-67
2024/02/06 07:46:18;;;;;;;6.10;3.17;;;;;;;6.74;70.57;100255.09;4147185;28;20381;-67
2024/02/06 07:48:19;;;;;;;6.57;2.70;;;;;;;6.72;70.33;100247.25;4147179;28;20030;-68
2024/02/06 07:50:19;;;;;;;5.13;2.42;;;;;;;6.89;70.04;100248.66;4147474;28;20034;-67
2024/02/06 07:52:20;;;;;;;6.47;2.80;;;;;;;6.67;70.39;100236.97;4147979;28;20032;-66
2024/02/06 07:54:20;;;;;;;7.85;2.90;;;;;;;6.75;70.23;100249.69;4147194;28;20045;-66
2024/02/06 07:56:20;;;;;;;5.87;2.27;;;;;;;6.65;70.50;100248.69;4147610;28;20030;-65
2024/02/06 07:58:21;;;;;;;8.05;2.22;;;;;;;6.76;70.34;100226.63;4147446;28;20033;-66
2024/02/06 08:00:22;;;;;;;5.45;3.00;;;;;;;6.79;70.17;100221.91;4147103;28;20548;-68
2024/02/06 08:02:22;;;;;;;8.90;3.63;;;;;;;6.79;70.07;100215.75;4147631;28;20036;-66
2024/02/06 08:04:23;;;;;;;9.05;3.92;;;;;;;6.78;70.12;100217.56;4147457;28;20038;-67
2024/02/06 08:06:23;;;;;;;11.00;4.43;;;;;;;6.86;69.70;100224.97;4147593;28;20409;-67
2024/02/06 08:08:24;;;;;;;8.23;3.10;;;;;;;6.81;69.77;100214.69;4147341;28;20026;-66
2024/02/06 08:10:25;;;;;;;9.50;2.83;;;;;;;6.98;69.58;100218.72;4148344;28;20026;-67
2024/02/06 08:12:27;;;;;;;7.05;3.35;;;;;;;6.97;69.45;100211.69;4149147;28;20025;-67
2024/02/06 08:14:27;;;;;;;5.53;2.13;;;;;;;7.06;69.27;100207.47;4149595;28;20025;-67
2024/02/06 08:16:28;;;;;;;7.28;2.40;;;;;;;7.09;69.31;100203.72;4150029;28;20032;-67
2024/02/06 08:18:28;;;;;;;5.75;2.70;;;;;;;7.16;69.00;100208.47;4148317;28;20478;-67
2024/02/06 08:20:28;;;;;;;5.77;2.70;;;;;;;7.13;69.13;100208.69;4150161;28;20547;-67
2024/02/06 08:22:31;;;;;;;6.00;2.50;;;;;;;7.09;69.23;100203.72;4150205;28;20306;-67
2024/02/06 08:24:31;;;;;;;6.70;2.45;;;;;;;7.15;69.10;100200.59;4160441;28;20285;-67
2024/02/06 08:26:32;;;;;;;6.57;2.07;;;;;;;7.19;68.94;100196.72;4159229;28;20021;-67
2024/02/06 08:28:32;;;;;;;5.50;2.47;;;;;;;7.32;68.73;100188.66;4150337;28;20273;-67
2024/02/06 08:30:32;;;;;;;5.07;1.95;;;;;;;7.36;68.45;100197.25;4150058;28;20033;-67
2024/02/06 08:32:33;;;;;;;6.90;1.77;;;;;;;7.28;68.63;100201.34;4148725;28;20081;-66
2024/02/06 08:34:34;;;;;;;4.55;1.88;;;;;;;7.32;68.30;100188.66;4149321;28;20625;-67
2024/02/06 08:36:34;;;;;;;4.03;1.65;;;;;;;7.44;68.07;100194.81;4149493;28;20451;-67
2024/02/06 08:38:36;;;;;;;4.22;1.90;;;;;;;7.48;67.91;100196.25;4149924;28;20018;-67
2024/02/06 08:40:36;;;;;;;5.47;3.10;;;;;;;7.39;67.98;100192.53;4154160;28;20022;-67
2024/02/06 08:42:37;;;;;;;5.10;2.10;;;;;;;7.43;67.74;100187.81;4163508;28;20124;-67
2024/02/06 08:44:38;;;;;;;3.45;1.52;;;;;;;7.49;67.67;100187.31;4162610;28;20281;-66
2024/02/06 08:46:38;;;;;;;3.53;1.55;;;;;;;7.58;67.51;100181.25;4162982;28;20029;-66
2024/02/06 08:48:39;;;;;;;5.53;1.60;;;;;;;7.58;67.42;100181.25;4163751;28;20033;-67
2024/02/06 08:50:39;;;;;;;3.80;1.53;;;;;;;7.66;67.26;100183.31;4164623;28;20045;-68
2024/02/06 08:52:43;;;;;;;4.88;1.40;;;;;;;7.65;67.04;100181.63;4159254;28;20026;-67
2024/02/06 08:54:43;;;;;;;4.57;1.50;;;;;;;7.69;67.12;100172.44;4163456;28;20092;-67
2024/02/06 08:56:44;;;;;;;3.03;1.00;;;;;;;7.80;66.82;100176.91;4149949;28;20025;-67
2024/02/06 08:58:45;;;;;;;4.65;1.92;;;;;;;7.82;66.86;100182.94;4149721;28;20030;-67
2024/02/06 09:00:45;;;;;;;3.88;1.73;;;;;;;7.83;66.75;100181.97;4149992;28;20078;-67
2024/02/06 09:02:46;;;;;;;3.67;1.50;;;;;;;7.80;66.75;100180.38;4150468;28;20033;-66
2024/02/06 09:04:46;;;;;;;4.47;1.80;;;;;;;7.89;66.59;100181.47;4149216;28;20260;-66
2024/02/06 09:06:47;;;;;;;4.72;1.85;;;;;;;7.95;66.51;100177.47;4149394;28;20030;-67
2024/02/06 09:08:47;;;;;;;4.38;1.77;;;;;;;7.99;66.30;100178.06;4149495;28;20029;-67
2024/02/06 09:10:48;;;;;;;4.47;1.35;;;;;;;8.02;66.48;100177.81;4149340;28;20030;-66
2024/02/06 09:12:48;;;;;;;4.10;1.45;;;;;;;8.07;66.16;100183.59;4149319;28;20033;-66
2024/02/06 09:14:49;;;;;;;3.40;1.40;;;;;;;7.97;66.22;100187.03;4148904;28;20113;-67
2024/02/06 09:16:49;;;;;;;5.07;1.70;;;;;;;8.03;66.11;100187.50;4149371;28;20029;-67
2024/02/06 09:18:51;;;;;;;5.53;1.50;;;;;;;8.07;65.98;100176.47;4149082;28;20264;-68
2024/02/06 09:20:51;;;;;;;5.97;1.83;;;;;;;8.09;66.03;100177.19;4149157;28;20026;-67
2024/02/06 09:22:52;;;;;;;6.28;2.05;;;;;;;8.18;65.89;100175.59;4148929;28;20050;-67
2024/02/06 09:24:52;;;;;;;5.10;1.80;;;;;;;8.25;65.75;100174.09;4148310;28;20640;-67